Custer, MT (59024)

4:48 PM MST on February 06, 2016 (GMT -0700)
Billings Logan International | | Change Station
CLOSE
Current Station
Airport
Location: Billings,
Elevation: 3570 ft
Nearby Weather Stations
Active Advisory: High Wind Warning

Elev 3570 ft 45.81 °N, 108.54 °W | Updated 55 minutes ago

Partly Cloudy
Partly Cloudy
42 °F
Feels Like 32 °F
N
24
Wind Variable Wind from NW
Gusts 31 mph

Today
High -- | Low -- °F
--% Chance of Precip.
Yesterday
High -- | Low -- °F
Precip. -- in
Pressure 30.07 in
Visibility 10.0 miles
Clouds Few 7000 ft
Scattered Clouds 12000 ft
Mostly Cloudy 19000 ft
Windchill 32 °F
Dew Point 12 °F
Humidity 29%
Rainfall 0.00 in
Snow Depth Not available.
7:27 AM 5:22 PM
Waning Crescent, 3% visible
METAR KBIL 062253Z 31021G27KT 10SM FEW070 SCT120 BKN190 06/M11 A3003 RMK AO2 PK WND 29038/2155 SLP182 T00561111
Pressure 30.07 in
Visibility 10.0 miles
Clouds Few 7000 ft
Scattered Clouds 12000 ft
Mostly Cloudy 19000 ft
Windchill 32 °F
Dew Point 12 °F
Humidity 29%
Rainfall 0.00 in
Snow Depth Not available.
7:27 AM 5:22 PM
Waning Crescent, 3% visible
METAR KBIL 062253Z 31021G27KT 10SM FEW070 SCT120 BKN190 06/M11 A3003 RMK AO2 PK WND 29038/2155 SLP182 T00561111

10-Day Weather Forecast

Almanac

Astronomy

Feb. 06, 2016 Rise Set
Actual Time
Civil Twilight
Nautical Twilight
Astronomical Twilight
Moon
Length of Visible Light
Length of Day
Tomorrow will be .
, % of the Moon is Illuminated

Today's Extremes

State Highs State Lows

Community

WunderPhotos

Upload Photos

1,891,098 photos uploaded!

WunderBlog® & News

Nearby

Air Quality

  Air Quality AQ Index Pollutant
Not available.

Snow Depth

Station Depth Elevation

Earthquake Activity

City Distance Mag. Time & Date
Minimum magnitude displayed is 2.5.

Coastal Water Temperatures

Place Temperature

Stations

Nearby Weather Stations

Station Location Temp. Windchill Dew Point Humidity Wind Precip. Elev Updated Type
                   

Watches & Warnings

High Wind Warning
Issued: 2:44 PM MST Feb. 6, 2016 – National Weather Service

... High Wind Warning remains in effect until 11 PM MST this
evening...

* impacts... dangerous cross winds will make travel hazardous for
high profile and Load carrying vehicles along Interstate 90...
Interstate 94... and US Highway 12... 87 and 212.

* Timing... west to northwest winds will continue into this
evening. The winds are expected to diminish late this evening.

* Winds... peak gusts up to 65 mph are expected.

Precautionary/preparedness actions...

Winds of these magnitudes can cause property damage without extra
precautions. Motorists in high profile vehicles should use
caution until the winds subside.